createdAt,value
2022-10-04T00:04:34.652Z,99344.16
2022-10-04T00:09:59.928Z,99341.84
2022-10-04T00:15:33.934Z,99341.38
2022-10-04T00:20:59.662Z,99344.41
2022-10-04T00:26:23.988Z,99341.13
2022-10-04T00:32:10.267Z,99335.78
2022-10-04T00:37:55.673Z,99333.16
2022-10-04T00:43:38.925Z,99331.09
2022-10-04T00:49:08.539Z,99324.28
2022-10-04T00:54:41.381Z,99324.53
2022-10-04T01:00:11.140Z,99315.13
2022-10-04T01:05:37.778Z,99317.84
2022-10-04T01:11:04.747Z,99320.34
2022-10-04T01:16:29.408Z,99315.13
2022-10-04T01:22:13.939Z,99316.03
2022-10-04T01:27:41.152Z,99310.69
2022-10-04T01:33:03.428Z,99310.31
2022-10-04T01:38:25.233Z,99300.00
2022-10-04T01:43:54.478Z,99293.75
2022-10-04T01:49:19.966Z,99280.81
2022-10-04T01:54:46.485Z,99270.28
2022-10-04T02:00:12.306Z,99266.44
2022-10-04T02:05:38.713Z,99263.97
2022-10-04T02:11:03.289Z,99264.59
2022-10-04T02:16:26.401Z,99262.00
2022-10-04T02:21:49.580Z,99267.22
2022-10-04T02:27:12.138Z,99269.63
2022-10-04T02:32:53.453Z,99258.31
2022-10-04T02:38:22.153Z,99252.88
2022-10-04T02:43:52.943Z,99248.25
2022-10-04T02:49:21.790Z,99255.81
2022-10-04T02:54:48.912Z,99249.44
2022-10-04T03:00:16.658Z,99252.41
2022-10-04T03:05:40.464Z,99245.94
2022-10-04T03:11:04.337Z,99240.84
2022-10-04T03:16:26.508Z,99240.19
2022-10-04T03:21:51.555Z,99230.31
2022-10-04T03:27:33.904Z,99228.84
2022-10-04T03:32:56.209Z,99229.56
2022-10-04T03:38:18.547Z,99219.22
2022-10-04T03:43:50.260Z,99236.41
2022-10-04T03:49:31.626Z,99224.69
2022-10-04T03:54:56.621Z,99227.13
2022-10-04T04:00:19.430Z,99229.25
2022-10-04T04:05:50.068Z,99223.56
2022-10-04T04:11:21.474Z,99228.41
2022-10-04T04:16:43.536Z,99217.38
2022-10-04T04:22:05.373Z,99223.06
2022-10-04T04:27:29.857Z,99214.88
2022-10-04T04:32:56.481Z,99212.81
2022-10-04T04:38:22.354Z,99211.41
2022-10-04T04:43:44.903Z,99210.41
2022-10-04T04:49:06.766Z,99203.69
2022-10-04T04:54:28.591Z,99212.50
2022-10-04T04:59:55.844Z,99227.25
2022-10-04T05:05:28.538Z,99242.47
2022-10-04T05:11:16.007Z,99247.69
2022-10-04T05:16:43.422Z,99251.25
2022-10-04T05:22:14.478Z,99252.06
2022-10-04T05:27:39.596Z,99251.94
2022-10-04T05:33:05.172Z,99257.16
2022-10-04T05:38:40.110Z,99256.53
2022-10-04T05:44:02.469Z,99259.03
2022-10-04T05:49:28.500Z,99245.91
2022-10-04T05:55:16.031Z,99245.28
2022-10-04T06:00:51.985Z,99244.50
2022-10-04T06:06:22.849Z,99242.47
2022-10-04T06:12:07.755Z,99251.63
2022-10-04T06:17:54.388Z,99243.41
2022-10-04T06:23:18.515Z,99237.31
2022-10-04T06:28:47.986Z,99238.88
2022-10-04T06:34:22.854Z,99254.03
2022-10-04T06:39:56.281Z,99252.22
2022-10-04T06:45:36.048Z,99251.47
2022-10-04T06:51:16.894Z,99246.22
2022-10-04T06:57:01.634Z,99243.41
2022-10-04T07:02:34.276Z,99246.94
2022-10-04T07:08:36.793Z,99252.63
2022-10-04T07:14:13.443Z,99249.38
2022-10-04T07:19:40.002Z,99252.47
2022-10-04T07:25:24.292Z,99254.69
2022-10-04T07:30:55.870Z,99261.69
2022-10-04T07:36:24.620Z,99271.53
2022-10-04T07:41:55.070Z,99282.06
2022-10-04T07:47:29.879Z,99292.69
2022-10-04T07:53:09.157Z,99303.59
2022-10-04T07:58:43.299Z,99295.75
2022-10-04T08:04:32.544Z,99291.84
2022-10-04T08:10:25.734Z,99282.50
2022-10-04T08:15:47.840Z,99280.22
2022-10-04T08:21:16.874Z,99281.53
2022-10-04T08:27:20.722Z,99258.84
2022-10-04T08:33:06.298Z,99245.59
2022-10-04T08:38:57.028Z,99252.81
2022-10-04T08:44:46.836Z,99254.09
2022-10-04T08:50:39.419Z,99260.56
2022-10-04T08:56:27.009Z,99272.16
2022-10-04T09:02:35.339Z,99286.63
2022-10-04T09:08:04.348Z,99280.47
2022-10-04T09:13:47.927Z,99286.97
2022-10-04T09:19:46.501Z,99281.63
2022-10-04T09:25:32.477Z,99273.59
2022-10-04T09:31:06.512Z,99262.50
2022-10-04T09:36:41.339Z,99243.00
2022-10-04T09:42:34.238Z,99253.69
2022-10-04T09:48:25.082Z,99243.19
2022-10-04T09:54:04.352Z,99245.19
2022-10-04T09:59:37.610Z,99240.19
2022-10-04T10:05:16.764Z,99241.09
2022-10-04T10:11:03.304Z,99231.16
2022-10-04T10:16:33.970Z,99229.38
2022-10-04T10:22:31.069Z,99234.28
2022-10-04T10:28:02.891Z,99230.97
2022-10-04T10:34:13.214Z,99238.06
2022-10-04T10:39:49.286Z,99229.47
2022-10-04T10:45:29.693Z,99222.59
2022-10-04T10:51:03.472Z,99229.47
2022-10-04T10:56:42.415Z,99223.31
2022-10-04T11:02:52.052Z,99218.03
2022-10-04T11:08:27.709Z,99206.97
2022-10-04T11:14:20.224Z,99209.41
2022-10-04T11:19:50.941Z,99203.94
2022-10-04T11:25:25.091Z,99203.50
2022-10-04T11:31:11.353Z,99203.84
2022-10-04T11:36:45.693Z,99185.91
2022-10-04T11:42:30.198Z,99174.00
2022-10-04T11:48:11.279Z,99173.41
2022-10-04T11:54:04.091Z,99159.94
2022-10-04T11:59:45.371Z,99148.09
2022-10-04T12:05:26.689Z,99141.75
2022-10-04T12:11:53.903Z,99142.31
2022-10-04T12:17:15.798Z,99132.56
2022-10-04T12:22:42.865Z,99126.38
2022-10-04T12:28:20.350Z,99127.50
2022-10-04T12:33:53.957Z,99127.63
2022-10-04T12:39:52.937Z,99119.19
2022-10-04T12:45:27.636Z,99117.50
2022-10-04T12:51:00.205Z,99111.16
2022-10-04T12:56:47.260Z,99110.06
2022-10-04T13:02:21.843Z,99109.41
2022-10-04T13:07:55.783Z,99103.91
2022-10-04T13:13:23.736Z,99104.47
2022-10-04T13:18:56.765Z,99098.13
2022-10-04T13:24:55.535Z,99099.88
2022-10-04T13:30:36.981Z,99100.44
2022-10-04T13:36:12.053Z,99108.38
2022-10-04T13:41:51.566Z,99110.19
2022-10-04T13:47:42.330Z,99101.03
2022-10-04T13:53:25.356Z,99103.19
2022-10-04T13:58:57.712Z,99095.69
2022-10-04T14:04:34.701Z,99099.78
2022-10-04T14:10:27.681Z,99097.78
2022-10-04T14:16:08.242Z,99084.34
2022-10-04T14:21:52.214Z,99083.38
2022-10-04T14:27:32.792Z,99078.88
2022-10-04T14:33:25.979Z,99078.78
2022-10-04T14:39:06.185Z,99073.50
2022-10-04T14:44:45.046Z,99072.19
2022-10-04T14:50:21.776Z,99061.38
2022-10-04T14:55:57.571Z,99073.63
2022-10-04T15:01:25.215Z,99071.09
2022-10-04T15:07:04.308Z,99066.44
2022-10-04T15:12:58.558Z,99060.53
2022-10-04T15:18:38.986Z,99062.44
2022-10-04T15:24:24.161Z,99055.00
2022-10-04T15:30:18.313Z,99059.44
2022-10-04T15:36:13.544Z,99053.66
2022-10-04T15:41:56.680Z,99048.63
2022-10-04T15:47:53.613Z,99048.84
2022-10-04T15:53:40.247Z,99050.63
2022-10-04T15:59:30.571Z,99051.09
2022-10-04T16:05:19.009Z,99049.66
2022-10-04T16:11:14.430Z,99043.88
2022-10-04T16:16:39.769Z,99040.94
2022-10-04T16:22:29.085Z,99036.00
2022-10-04T16:28:05.845Z,99028.34
2022-10-04T16:33:42.876Z,99031.47
2022-10-04T16:39:24.069Z,99033.84
2022-10-04T16:44:54.838Z,99037.16
2022-10-04T16:50:54.475Z,99032.63
2022-10-04T16:56:20.348Z,99045.63
2022-10-04T17:02:03.398Z,99052.41
2022-10-04T17:07:37.179Z,99058.31
2022-10-04T17:13:50.765Z,99069.44
2022-10-04T17:19:32.532Z,99070.81
2022-10-04T17:25:03.272Z,99062.47
2022-10-04T17:30:27.943Z,99065.66
2022-10-04T17:36:18.385Z,99053.34
2022-10-04T17:42:08.798Z,99050.91
2022-10-04T17:48:04.231Z,99043.44
2022-10-04T17:53:48.666Z,99025.72
2022-10-04T17:59:15.947Z,99013.28
2022-10-04T18:04:59.961Z,99027.50
2022-10-04T18:10:50.488Z,99025.47
2022-10-04T18:16:24.327Z,99040.06
2022-10-04T18:21:52.445Z,99036.75
2022-10-04T18:27:25.196Z,99041.78
2022-10-04T18:32:57.391Z,99048.72
2022-10-04T18:38:26.938Z,99045.97
2022-10-04T18:43:57.906Z,99047.97
2022-10-04T18:49:24.535Z,99054.94
2022-10-04T18:55:02.561Z,99055.41
2022-10-04T19:00:49.734Z,99065.19
2022-10-04T19:06:30.498Z,99077.03
2022-10-04T19:12:13.375Z,99078.91
2022-10-04T19:18:06.453Z,99077.47
2022-10-04T19:23:41.243Z,99090.22
2022-10-04T19:29:18.116Z,99094.09
2022-10-04T19:35:16.473Z,99088.94
2022-10-04T19:40:48.626Z,99098.38
2022-10-04T19:46:32.110Z,99097.91
2022-10-04T19:52:17.418Z,99102.91
2022-10-04T19:57:40.217Z,99109.81
2022-10-04T20:03:02.070Z,99116.31
2022-10-04T20:08:48.830Z,99114.31
2022-10-04T20:14:16.893Z,99131.50
2022-10-04T20:19:41.544Z,99140.31
2022-10-04T20:25:03.709Z,99144.00
2022-10-04T20:30:25.548Z,99145.94
2022-10-04T20:36:02.201Z,99158.91
2022-10-04T20:41:30.135Z,99156.91
2022-10-04T20:46:52.027Z,99157.44
2022-10-04T20:52:17.009Z,99168.34
2022-10-04T20:57:40.662Z,99171.13
2022-10-04T21:03:10.217Z,99180.81
2022-10-04T21:08:32.592Z,99175.84
2022-10-04T21:13:59.707Z,99192.53
2022-10-04T21:19:33.852Z,99197.31
2022-10-04T21:24:57.036Z,99199.97
2022-10-04T21:30:19.742Z,99200.81
2022-10-04T21:35:41.468Z,99198.28
2022-10-04T21:41:03.728Z,99198.28
2022-10-04T21:46:25.504Z,99195.44
2022-10-04T21:51:47.236Z,99191.22
2022-10-04T21:57:08.940Z,99193.94
2022-10-04T22:02:30.815Z,99205.03
2022-10-04T22:07:52.671Z,99202.66
2022-10-04T22:13:14.928Z,99206.59
2022-10-04T22:18:36.694Z,99201.84
2022-10-04T22:23:58.645Z,99201.03
2022-10-04T22:29:20.657Z,99189.25
2022-10-04T22:34:42.345Z,99171.78
2022-10-04T22:40:04.653Z,99168.63
2022-10-04T22:45:33.351Z,99157.22
2022-10-04T22:50:55.177Z,99151.97
2022-10-04T22:56:16.947Z,99146.41
2022-10-04T23:01:39.290Z,99146.84
2022-10-04T23:07:00.976Z,99148.59
2022-10-04T23:12:22.719Z,99141.47
2022-10-04T23:17:46.408Z,99147.94
2022-10-04T23:23:21.009Z,99141.47
2022-10-04T23:28:42.685Z,99141.28
2022-10-04T23:34:15.660Z,99132.28
2022-10-04T23:39:37.513Z,99128.44
2022-10-04T23:45:01.322Z,99119.91
2022-10-04T23:50:32.843Z,99113.66
2022-10-04T23:55:56.324Z,99116.28
